Time;durP1;ratioP1;P1;durP2;ratioP2;P2;SDS_P1;SDS_P2;PMS_P1;PMS_P2;Temp;Humidity;BMP_temperature;BMP_pressure;BME280_temperature;BME280_humidity;BME280_pressure;Samples;Min_cycle;Max_cycle;Signal;HPM_P1;HPM_P2
2022/09/24 00:01:45;762563.00;2.54;1315.91;111391.00;0.37;193.23;;;;;17.60;1.00;;;;;;2264207;61;1930;-85
2022/09/24 00:04:14;831222.00;2.77;1435.63;60127.00;0.20;104.70;;;;;17.80;1.00;;;;;;2264331;61;1039;-85
2022/09/24 00:06:43;960638.00;3.20;1662.88;119108.00;0.40;206.54;;;;;17.70;1.00;;;;;;2267612;61;1107;-85
2022/09/24 00:09:12;689305.00;2.30;1188.70;65735.00;0.22;114.39;;;;;17.80;1.00;;;;;;2267889;61;955;-84
2022/09/24 00:11:39;663119.00;2.21;1143.34;66521.00;0.22;115.75;;;;;17.80;1.00;;;;;;2268288;61;1367;-84
2022/09/24 00:14:06;885809.00;2.95;1531.21;89852.00;0.30;156.05;;;;;17.70;1.00;;;;;;2268324;61;1054;-85
2022/09/24 00:16:34;823977.00;2.75;1422.97;64963.00;0.22;113.06;;;;;17.80;1.00;;;;;;2268267;61;1196;-84
2022/09/24 00:19:02;670425.00;2.23;1155.99;71813.00;0.24;124.89;;;;;17.90;1.00;;;;;;2268268;61;1119;-84
2022/09/24 00:21:32;606417.00;2.02;1045.30;53699.00;0.18;93.58;;;;;18.00;1.00;;;;;;2267690;61;1992;-83
2022/09/24 00:24:01;763974.00;2.55;1318.36;61748.00;0.21;107.50;;;;;18.20;1.00;;;;;;2264195;61;1065;-85
2022/09/24 00:29:14;816618.00;2.72;1410.12;66552.00;0.22;115.80;;;;;18.40;1.00;;;;;;2264217;61;628;-85
2022/09/24 00:31:41;790037.00;2.63;1363.75;63283.00;0.21;110.15;;;;;18.10;1.00;;;;;;2264128;61;1396;-84
2022/09/24 00:34:09;694336.00;2.31;1197.42;63439.00;0.21;110.42;;;;;18.10;1.00;;;;;;2264260;61;1094;-84
2022/09/24 00:36:37;1050652.00;3.50;1822.39;109311.00;0.36;189.64;;;;;17.90;1.00;;;;;;2264050;61;1099;-85
2022/09/24 00:39:05;587222.00;1.96;1012.16;63301.00;0.21;110.18;;;;;18.00;1.00;;;;;;2264109;61;1138;-85
2022/09/24 00:41:35;813178.00;2.71;1404.12;67700.00;0.23;117.79;;;;;18.00;1.00;;;;;;2260027;61;1918;-84
2022/09/24 00:44:52;678446.00;2.26;1169.88;62089.00;0.21;108.09;;;;;18.00;1.00;;;;;;2263165;61;1141;-83
2022/09/24 00:47:28;372017.00;1.24;641.70;0.00;0.00;0.62;;;;;18.10;1.00;;;;;;2257441;61;1104;-85
2022/09/24 00:50:00;390716.00;1.30;673.85;7582.00;0.03;13.76;;;;;18.10;1.00;;;;;;2264265;61;1049;-85
2022/09/24 00:52:29;576107.00;1.92;992.98;0.00;0.00;0.62;;;;;18.00;1.00;;;;;;2264106;61;1428;-85
2022/09/24 00:54:56;430383.00;1.43;742.04;0.00;0.00;0.62;;;;;18.00;1.00;;;;;;2264084;61;1024;-83
2022/09/24 00:57:23;420249.00;1.40;724.62;0.00;0.00;0.62;;;;;18.10;1.00;;;;;;2264096;61;1102;-85
2022/09/24 00:59:50;520407.00;1.73;896.97;0.00;0.00;0.62;;;;;18.30;1.00;;;;;;2263970;61;1098;-84
2022/09/24 01:02:17;716672.00;2.39;1236.16;29696.00;0.10;52.06;;;;;18.00;1.00;;;;;;2264015;61;1928;-84
2022/09/24 01:04:44;557170.00;1.86;960.32;13795.00;0.05;24.52;;;;;18.00;1.00;;;;;;2260462;61;1134;-84
2022/09/24 01:07:11;494349.00;1.65;852.10;0.00;0.00;0.62;;;;;17.70;1.00;;;;;;2260203;61;1110;-84
2022/09/24 01:09:39;573248.00;1.91;988.05;0.00;0.00;0.62;;;;;17.60;1.00;;;;;;2260105;61;1160;-84
2022/09/24 01:12:18;627294.00;2.09;1081.37;0.00;0.00;0.62;;;;;17.80;1.00;;;;;;2259950;61;1389;-85
2022/09/24 01:15:03;659238.00;2.20;1136.62;61582.00;0.21;107.21;;;;;18.00;1.00;;;;;;2260022;61;1077;-84
2022/09/24 01:17:38;435289.00;1.45;750.48;0.00;0.00;0.62;;;;;18.00;1.00;;;;;;2260065;61;1037;-84
2022/09/24 01:20:30;444735.00;1.48;766.73;0.00;0.00;0.62;;;;;17.80;1.00;;;;;;2260069;61;1065;-85
2022/09/24 01:23:22;398326.00;1.33;686.93;0.00;0.00;0.62;;;;;17.90;1.00;;;;;;2260513;61;1332;-85
2022/09/24 01:26:11;495683.00;1.65;854.39;0.00;0.00;0.62;;;;;17.80;1.00;;;;;;2264779;61;1146;-85
2022/09/24 01:28:54;467215.00;1.56;805.40;12818.00;0.04;22.83;;;;;18.00;1.00;;;;;;2264673;61;1153;-84
2022/09/24 01:31:29;324072.00;1.08;559.30;0.00;0.00;0.62;;;;;17.90;1.00;;;;;;2263769;61;1116;-84
2022/09/24 01:34:04;417808.00;1.39;720.42;0.00;0.00;0.62;;;;;17.70;1.00;;;;;;2260724;61;1187;-85
2022/09/24 01:36:34;355955.00;1.19;614.10;0.00;0.00;0.62;;;;;17.90;1.00;;;;;;2260804;61;993;-85
2022/09/24 01:39:04;565237.00;1.88;974.23;31701.00;0.11;55.53;;;;;18.00;1.00;;;;;;2260711;61;1048;-84
2022/09/24 01:41:33;608558.00;2.03;1049.00;0.00;0.00;0.62;;;;;17.80;1.00;;;;;;2260579;61;1990;-84
2022/09/24 01:44:04;455696.00;1.52;785.58;0.00;0.00;0.62;;;;;17.70;1.00;;;;;;2260803;61;1087;-85
2022/09/24 01:46:33;578260.00;1.93;996.70;0.00;0.00;0.62;;;;;17.80;1.00;;;;;;2263779;61;1243;-84
2022/09/24 01:49:00;514104.00;1.71;886.11;0.00;0.00;0.62;;;;;17.70;1.00;;;;;;2264764;61;1166;-85
2022/09/24 01:51:34;428418.00;1.43;738.67;0.00;0.00;0.62;;;;;17.60;1.00;;;;;;2261443;61;1414;-84
2022/09/24 01:54:05;456549.00;1.52;787.05;0.00;0.00;0.62;;;;;17.60;1.00;;;;;;2260639;61;1072;-84
2022/09/24 01:56:39;275766.00;0.92;476.26;0.00;0.00;0.62;;;;;17.60;1.00;;;;;;2260726;61;1073;-85
2022/09/24 01:59:14;466375.00;1.55;803.95;0.00;0.00;0.62;;;;;17.70;1.00;;;;;;2260626;61;1015;-85
2022/09/24 02:01:46;417724.00;1.39;720.28;0.00;0.00;0.62;;;;;17.80;1.00;;;;;;2263880;61;1990;-84
2022/09/24 02:04:17;429217.00;1.43;740.04;0.00;0.00;0.62;;;;;17.90;1.00;;;;;;2264778;61;1017;-84
2022/09/24 02:06:50;463341.00;1.54;798.73;0.00;0.00;0.62;;;;;17.80;1.00;;;;;;2264723;61;1037;-85
2022/09/24 02:09:31;532572.00;1.78;917.92;0.00;0.00;0.62;;;;;17.80;1.00;;;;;;2264594;61;1143;-85
2022/09/24 02:12:01;433570.00;1.45;747.52;0.00;0.00;0.62;;;;;17.50;1.00;;;;;;2262007;61;1443;-85
2022/09/24 02:14:33;518261.00;1.73;893.27;27892.00;0.09;48.93;;;;;17.40;1.00;;;;;;2260641;61;1101;-86
2022/09/24 02:17:05;363878.00;1.21;627.71;0.00;0.00;0.62;;;;;17.50;1.00;;;;;;2260612;61;1035;-85
2022/09/24 02:19:37;423107.00;1.41;729.53;0.00;0.00;0.62;;;;;17.20;1.00;;;;;;2260722;61;1127;-85
2022/09/24 02:22:08;225627.00;0.75;390.03;0.00;0.00;0.62;;;;;16.80;1.00;;;;;;2263910;61;1919;-86
2022/09/24 02:24:44;453166.00;1.51;781.23;0.00;0.00;0.62;;;;;16.30;1.00;;;;;;2264574;61;1190;-85
2022/09/24 02:27:11;654043.00;2.18;1127.63;0.00;0.00;0.62;;;;;16.20;1.00;;;;;;2264594;61;1094;-86
2022/09/24 02:29:38;420241.00;1.40;724.60;0.00;0.00;0.62;;;;;16.40;1.00;;;;;;2264619;61;1143;-85
2022/09/24 02:32:10;362596.00;1.21;625.51;0.00;0.00;0.62;;;;;16.80;1.00;;;;;;2264542;61;1351;-84
2022/09/24 02:34:45;630268.00;2.10;1086.51;26836.00;0.09;47.11;;;;;17.20;1.00;;;;;;2264524;61;1044;-84
2022/09/24 02:37:14;292441.00;0.97;504.93;0.00;0.00;0.62;;;;;17.40;1.00;;;;;;2264298;61;933;-86
2022/09/24 02:39:41;501338.00;1.67;864.13;0.00;0.00;0.62;;;;;17.50;1.00;;;;;;2264367;61;1132;-85
2022/09/24 02:42:11;433326.00;1.44;747.11;0.00;0.00;0.62;;;;;17.70;1.00;;;;;;2261469;61;1920;-85
2022/09/24 02:44:38;644945.00;2.15;1111.89;0.00;0.00;0.62;;;;;17.40;1.00;;;;;;2260515;61;1069;-85
2022/09/24 02:47:07;456675.00;1.52;787.26;0.00;0.00;0.62;;;;;17.00;1.00;;;;;;2260565;61;1143;-85
2022/09/24 02:49:34;445216.00;1.48;767.55;0.00;0.00;0.62;;;;;17.00;1.00;;;;;;2263119;61;1034;-86
2022/09/24 02:52:01;478520.00;1.60;824.85;0.00;0.00;0.62;;;;;17.20;1.00;;;;;;2264547;61;1274;-84
2022/09/24 02:54:28;351966.00;1.17;607.24;0.00;0.00;0.62;;;;;17.40;1.00;;;;;;2264632;61;1043;-84
2022/09/24 02:56:55;508890.00;1.70;877.13;0.00;0.00;0.62;;;;;17.50;1.00;;;;;;2264573;61;1068;-84
2022/09/24 02:59:21;599447.00;2.00;1033.27;0.00;0.00;0.62;;;;;17.60;1.00;;;;;;2264588;61;1132;-84
2022/09/24 03:01:49;336720.00;1.12;581.04;0.00;0.00;0.62;;;;;17.40;1.00;;;;;;2264414;61;1991;-83
2022/09/24 03:04:18;335598.00;1.12;579.11;0.00;0.00;0.62;;;;;17.10;1.00;;;;;;2264560;61;1096;-84
2022/09/24 03:06:45;618012.00;2.06;1065.33;34537.00;0.12;60.44;;;;;16.90;1.00;;;;;;2264511;61;1135;-85
2022/09/24 03:09:12;452989.00;1.51;780.92;0.00;0.00;0.62;;;;;16.80;1.00;;;;;;2262211;61;1001;-84
2022/09/24 03:11:39;659697.00;2.20;1137.42;68640.00;0.23;119.41;;;;;17.10;1.00;;;;;;2260454;61;1400;-83
2022/09/24 03:14:06;459186.00;1.53;791.58;0.00;0.00;0.62;;;;;17.20;1.00;;;;;;2260384;61;1114;-84
2022/09/24 03:16:33;371064.00;1.24;640.07;0.00;0.00;0.62;;;;;17.10;1.00;;;;;;2260481;61;1153;-85
2022/09/24 03:19:00;666962.00;2.22;1149.99;21626.00;0.07;38.09;;;;;17.00;1.00;;;;;;2261978;61;1068;-84
2022/09/24 03:21:29;416861.00;1.39;718.79;0.00;0.00;0.62;;;;;17.00;1.00;;;;;;2264412;61;2005;-84
2022/09/24 03:23:55;595846.00;1.99;1027.05;87471.00;0.29;151.94;;;;;17.20;1.00;;;;;;2264474;61;1002;-84
2022/09/24 03:26:22;452191.00;1.51;779.55;0.00;0.00;0.62;;;;;17.40;1.00;;;;;;2264337;61;1570;-84
2022/09/24 03:28:49;523244.00;1.74;901.85;23982.00;0.08;42.17;;;;;17.70;1.00;;;;;;2260499;61;1135;-85
2022/09/24 03:31:15;324237.00;1.08;559.58;0.00;0.00;0.62;;;;;17.50;1.00;;;;;;2260472;61;1140;-86
2022/09/24 03:33:45;502346.00;1.67;865.86;0.00;0.00;0.62;;;;;17.40;1.00;;;;;;2260419;61;1296;-84
2022/09/24 03:36:15;422177.00;1.41;727.93;0.00;0.00;0.62;;;;;17.60;1.00;;;;;;2260473;61;1047;-84
2022/09/24 03:38:45;292349.00;0.97;504.77;0.00;0.00;0.62;;;;;17.60;1.00;;;;;;2263944;61;1120;-84
2022/09/24 03:41:13;376607.00;1.26;649.59;0.00;0.00;0.62;;;;;17.80;1.00;;;;;;2264146;61;1939;-83
2022/09/24 03:43:39;385989.00;1.29;665.72;0.00;0.00;0.62;;;;;17.70;1.00;;;;;;2264155;61;1384;-84
2022/09/24 03:46:07;453062.00;1.51;781.05;0.00;0.00;0.62;;;;;17.60;1.00;;;;;;2264433;61;1088;-84
2022/09/24 03:48:35;292308.00;0.97;504.70;0.00;0.00;0.62;;;;;17.50;1.00;;;;;;2264280;61;1585;-84
2022/09/24 03:51:04;441861.00;1.47;761.78;0.00;0.00;0.62;;;;;17.40;1.00;;;;;;2264403;61;1189;-85
2022/09/24 03:53:31;392675.00;1.31;677.21;0.00;0.00;0.62;;;;;17.50;1.00;;;;;;2264374;61;1301;-85
2022/09/24 03:56:01;623152.00;2.08;1074.21;0.00;0.00;0.62;;;;;17.50;1.00;;;;;;2264375;61;1060;-83
2022/09/24 03:58:30;393140.00;1.31;678.01;0.00;0.00;0.62;;;;;17.20;1.00;;;;;;2261654;61;1040;-85
2022/09/24 04:00:57;320878.00;1.07;553.81;0.00;0.00;0.62;;;;;17.10;1.00;;;;;;2260292;61;1146;-84
2022/09/24 04:03:25;559757.00;1.87;964.78;0.00;0.00;0.62;;;;;17.50;1.00;;;;;;2260293;61;2009;-85
2022/09/24 04:05:52;317922.00;1.06;548.73;0.00;0.00;0.62;;;;;17.60;1.00;;;;;;2260359;61;1056;-85
2022/09/24 04:08:19;417681.00;1.39;720.20;0.00;0.00;0.62;;;;;17.80;1.00;;;;;;2262405;61;1162;-85
2022/09/24 04:10:46;350562.00;1.17;604.83;0.00;0.00;0.62;;;;;17.40;1.00;;;;;;2264283;61;1087;-84
2022/09/24 04:13:15;380167.00;1.27;655.71;0.00;0.00;0.62;;;;;17.30;1.00;;;;;;2264268;61;1362;-85
2022/09/24 04:15:42;343277.00;1.14;592.31;0.00;0.00;0.62;;;;;17.00;1.00;;;;;;2264323;61;1118;-85
2022/09/24 04:18:10;932060.00;3.11;1612.50;88154.00;0.29;153.12;;;;;16.70;1.00;;;;;;2262709;61;1070;-84
2022/09/24 04:20:37;409218.00;1.36;705.65;0.00;0.00;0.62;;;;;17.00;1.00;;;;;;2260356;61;1135;-85
2022/09/24 04:23:04;472979.00;1.58;815.32;0.00;0.00;0.62;;;;;17.10;1.00;;;;;;2260026;61;1999;-83
2022/09/24 04:25:32;500984.00;1.67;863.52;0.00;0.00;0.62;;;;;17.10;1.00;;;;;;2260249;61;1080;-86
2022/09/24 04:28:01;363046.00;1.21;626.28;0.00;0.00;0.62;;;;;17.10;1.00;;;;;;2260134;61;1069;-84
2022/09/24 04:30:32;447346.00;1.49;771.22;0.00;0.00;0.62;;;;;17.00;1.00;;;;;;2260288;61;1114;-85
2022/09/24 04:32:59;140515.00;0.47;243.46;0.00;0.00;0.62;;;;;17.10;1.00;;;;;;2260147;61;1361;-83
2022/09/24 04:35:28;303253.00;1.01;523.51;0.00;0.00;0.62;;;;;17.10;1.00;;;;;;2260259;61;1088;-85
2022/09/24 04:37:56;361875.00;1.21;624.27;0.00;0.00;0.62;;;;;17.10;1.00;;;;;;2260275;61;1138;-85
2022/09/24 04:40:23;404839.00;1.35;698.12;0.00;0.00;0.62;;;;;17.10;1.00;;;;;;2264502;61;1061;-86
2022/09/24 04:42:49;454583.00;1.52;783.67;0.00;0.00;0.62;;;;;17.10;1.00;;;;;;2268067;61;1927;-84
2022/09/24 04:45:19;418323.00;1.39;721.31;0.00;0.00;0.62;;;;;17.00;1.00;;;;;;2268315;61;1123;-84
2022/09/24 04:47:52;431422.00;1.44;743.83;0.00;0.00;0.62;;;;;17.10;1.00;;;;;;2268210;61;1103;-84
2022/09/24 04:50:20;356811.00;1.19;615.57;0.00;0.00;0.62;;;;;17.30;1.00;;;;;;2267068;61;1119;-84
2022/09/24 04:52:47;317963.00;1.06;548.80;0.00;0.00;0.62;;;;;17.60;1.00;;;;;;2264224;61;1387;-85
2022/09/24 04:55:14;477444.00;1.59;823.00;0.00;0.00;0.62;;;;;17.50;1.00;;;;;;2264216;61;1125;-85
2022/09/24 04:57:41;474332.00;1.58;817.64;0.00;0.00;0.62;;;;;17.30;1.00;;;;;;2266708;61;1182;-84
2022/09/24 05:00:13;368834.00;1.23;636.23;0.00;0.00;0.62;;;;;17.40;1.00;;;;;;2268215;61;1054;-85
2022/09/24 05:02:40;766768.00;2.56;1323.23;39452.00;0.13;68.94;;;;;17.10;1.00;;;;;;2268177;61;1919;-85
2022/09/24 05:05:09;484508.00;1.62;835.16;0.00;0.00;0.62;;;;;17.10;1.00;;;;;;2268153;61;950;-85
2022/09/24 05:07:36;1005272.00;3.35;1741.81;189131.00;0.63;327.21;;;;;17.30;1.00;;;;;;2265666;61;1003;-84
2022/09/24 05:10:05;725523.00;2.42;1251.53;61797.00;0.21;107.58;;;;;17.20;1.00;;;;;;2264103;61;1097;-84
2022/09/24 05:12:32;600631.00;2.00;1035.31;106442.00;0.35;184.69;;;;;16.90;1.00;;;;;;2264062;61;1293;-84
2022/09/24 05:14:58;467056.00;1.56;805.12;0.00;0.00;0.62;;;;;16.60;1.00;;;;;;2264033;61;1136;-84
2022/09/24 05:17:25;396389.00;1.32;683.60;0.00;0.00;0.62;;;;;16.50;1.00;;;;;;2265863;61;1052;-84
2022/09/24 05:19:52;326869.00;1.09;564.10;0.00;0.00;0.62;;;;;16.30;1.00;;;;;;2267947;61;1261;-84
2022/09/24 05:22:20;373082.00;1.24;643.53;0.00;0.00;0.62;;;;;16.30;1.00;;;;;;2267971;61;1924;-84
2022/09/24 05:24:47;638046.00;2.13;1099.96;60992.00;0.20;106.19;;;;;16.40;1.00;;;;;;2267860;61;1155;-85
2022/09/24 05:27:13;377517.00;1.26;651.16;0.00;0.00;0.62;;;;;16.70;1.00;;;;;;2266976;61;1118;-84
2022/09/24 05:29:42;612622.00;2.04;1056.02;0.00;0.00;0.62;;;;;17.10;1.00;;;;;;2263906;61;1122;-85
2022/09/24 05:32:11;483361.00;1.61;833.18;0.00;0.00;0.62;;;;;17.40;1.00;;;;;;2263961;61;1387;-85
2022/09/24 05:34:40;460518.00;1.54;793.88;0.00;0.00;0.62;;;;;17.60;1.00;;;;;;2264093;61;1052;-84
2022/09/24 05:37:07;405140.00;1.35;698.64;0.00;0.00;0.62;;;;;17.70;1.00;;;;;;2264568;61;1037;-85
2022/09/24 05:39:35;556602.00;1.86;959.34;76822.00;0.26;133.55;;;;;17.70;1.00;;;;;;2267201;61;1126;-85
2022/09/24 05:42:03;392361.00;1.31;676.67;0.00;0.00;0.62;;;;;17.80;1.00;;;;;;2261731;61;2002;-84
2022/09/24 05:44:30;487629.00;1.63;840.53;0.00;0.00;0.62;;;;;17.70;1.00;;;;;;2260018;61;1169;-86
2022/09/24 05:46:57;363888.00;1.21;627.73;0.00;0.00;0.62;;;;;17.80;1.00;;;;;;2259956;61;1026;-85
2022/09/24 05:49:24;418459.00;1.39;721.54;0.00;0.00;0.62;;;;;17.80;1.00;;;;;;2260084;61;1024;-84
2022/09/24 05:51:51;525771.00;1.75;906.21;0.00;0.00;0.62;;;;;17.80;1.00;;;;;;2260028;61;1353;-85
2022/09/24 05:54:19;295086.00;0.98;509.47;0.00;0.00;0.62;;;;;17.90;1.00;;;;;;2260094;61;1129;-85
2022/09/24 05:56:47;480381.00;1.60;828.05;0.00;0.00;0.62;;;;;18.10;1.00;;;;;;2260009;61;1059;-84
2022/09/24 05:59:14;326493.00;1.09;563.46;0.00;0.00;0.62;;;;;18.20;1.00;;;;;;2259907;61;1067;-84
2022/09/24 06:01:41;420839.00;1.40;725.63;0.00;0.00;0.62;;;;;18.20;1.00;;;;;;2259901;61;1332;-85
2022/09/24 06:04:09;404645.00;1.35;697.79;0.00;0.00;0.62;;;;;18.40;1.00;;;;;;2259977;61;1928;-85
2022/09/24 06:06:36;331571.00;1.11;572.19;0.00;0.00;0.62;;;;;18.20;1.00;;;;;;2260294;61;1509;-85
2022/09/24 06:09:04;506232.00;1.69;872.55;45098.00;0.15;78.71;;;;;18.10;1.00;;;;;;2260728;61;1159;-85
2022/09/24 06:11:33;460721.00;1.54;794.23;0.00;0.00;0.62;;;;;17.80;1.00;;;;;;2260557;61;1298;-85
2022/09/24 06:14:03;355275.00;1.18;612.93;0.00;0.00;0.62;;;;;17.90;1.00;;;;;;2260558;61;1674;-84
2022/09/24 06:16:31;338607.00;1.13;584.28;0.00;0.00;0.62;;;;;18.00;1.00;;;;;;2260497;61;945;-85
2022/09/24 06:18:58;457319.00;1.52;788.37;0.00;0.00;0.62;;;;;18.00;1.00;;;;;;2260598;61;1120;-85
2022/09/24 06:21:25;585030.00;1.95;1008.38;0.00;0.00;0.62;;;;;18.10;1.00;;;;;;2260560;61;963;-85
2022/09/24 06:23:52;592222.00;1.97;1020.79;0.00;0.00;0.62;;;;;18.30;1.00;;;;;;2260579;61;2018;-86
2022/09/24 06:26:19;946119.00;3.15;1637.27;142333.00;0.47;246.59;;;;;18.40;1.00;;;;;;2260650;61;1130;-84
2022/09/24 06:28:46;354556.00;1.18;611.69;0.00;0.00;0.62;;;;;18.30;1.00;;;;;;2260635;61;1126;-85
2022/09/24 06:31:14;757133.00;2.52;1306.46;141050.00;0.47;244.38;;;;;18.50;1.00;;;;;;2260506;61;1146;-85
2022/09/24 06:33:41;613777.00;2.05;1058.01;0.00;0.00;0.62;;;;;18.60;1.00;;;;;;2260586;61;1383;-86
2022/09/24 06:36:09;340402.00;1.13;587.36;0.00;0.00;0.62;;;;;18.60;1.00;;;;;;2260621;61;1092;-85
2022/09/24 06:38:38;447486.00;1.49;771.46;0.00;0.00;0.62;;;;;18.50;1.00;;;;;;2260608;61;975;-86
2022/09/24 06:41:06;451289.00;1.50;778.00;0.00;0.00;0.62;;;;;18.40;1.00;;;;;;2260414;61;1048;-85
2022/09/24 06:43:34;450637.00;1.50;776.88;0.00;0.00;0.62;;;;;18.50;1.00;;;;;;2260425;61;2000;-85
2022/09/24 06:46:02;530455.00;1.77;914.28;0.00;0.00;0.62;;;;;18.60;1.00;;;;;;2260615;61;1127;-85
2022/09/24 06:48:31;355031.00;1.18;612.51;0.00;0.00;0.62;;;;;18.70;1.00;;;;;;2260498;61;1143;-85
2022/09/24 06:50:57;375722.00;1.25;648.07;0.00;0.00;0.62;;;;;18.50;1.00;;;;;;2260475;61;1052;-85
2022/09/24 06:53:25;117538528.00;391.80;65776492.00;8164.00;0.03;14.77;;;;;18.30;1.00;;;;;;2260473;61;1367;-87
2022/09/24 06:55:53;520983.00;1.74;897.96;0.00;0.00;0.62;;;;;18.00;1.00;;;;;;2260462;61;1099;-85
2022/09/24 06:58:20;319609.00;1.07;551.63;0.00;0.00;0.62;;;;;17.90;1.00;;;;;;2260414;61;1026;-85
2022/09/24 07:00:53;360494.00;1.20;621.90;0.00;0.00;0.62;;;;;17.90;1.00;;;;;;2260481;61;1060;-85
2022/09/24 07:03:21;346761.00;1.16;598.29;0.00;0.00;0.62;;;;;18.10;1.00;;;;;;2260342;61;1993;-85
2022/09/24 07:05:49;507205.00;1.69;874.23;0.00;0.00;0.62;;;;;18.30;1.00;;;;;;2260554;61;1224;-86
2022/09/24 07:08:16;408189.00;1.36;703.88;0.00;0.00;0.62;;;;;18.10;1.00;;;;;;2260513;61;1099;-85
2022/09/24 07:10:45;463090.00;1.54;798.30;0.00;0.00;0.62;;;;;18.00;1.00;;;;;;2260466;61;1061;-85
2022/09/24 07:13:13;493498.00;1.64;850.63;0.00;0.00;0.62;;;;;17.90;1.00;;;;;;2260345;61;1358;-85
2022/09/24 07:15:40;433904.00;1.45;748.10;0.00;0.00;0.62;;;;;18.00;1.00;;;;;;2260338;61;1104;-85
2022/09/24 07:18:07;691616.00;2.31;1192.70;0.00;0.00;0.62;;;;;18.30;1.00;;;;;;2260305;61;1084;-85
2022/09/24 07:20:35;574864.00;1.92;990.84;0.00;0.00;0.62;;;;;18.30;1.00;;;;;;2260359;61;1077;-86
2022/09/24 07:23:04;574904.00;1.92;990.91;0.00;0.00;0.62;;;;;18.40;1.00;;;;;;2260406;61;1989;-88
2022/09/24 07:25:32;516527.00;1.72;890.28;0.00;0.00;0.62;;;;;18.80;1.00;;;;;;2260416;61;1029;-85
2022/09/24 07:28:03;354471.00;1.18;611.55;0.00;0.00;0.62;;;;;18.60;1.00;;;;;;2260386;61;1121;-86
2022/09/24 07:30:30;590901.00;1.97;1018.51;30291.00;0.10;53.09;;;;;18.50;1.00;;;;;;2260475;61;1103;-86
2022/09/24 07:32:57;686337.00;2.29;1183.55;24685.00;0.08;43.38;;;;;18.30;1.00;;;;;;2260410;61;1492;-87
2022/09/24 07:35:24;330420.00;1.10;570.21;0.00;0.00;0.62;;;;;17.80;1.00;;;;;;2260277;61;1080;-87
2022/09/24 07:37:58;607876.00;2.03;1047.82;0.00;0.00;0.62;;;;;17.80;1.00;;;;;;2263275;61;1110;-85
2022/09/24 07:40:26;450551.00;1.50;776.73;0.00;0.00;0.62;;;;;18.00;1.00;;;;;;2263000;61;1084;-84
2022/09/24 07:42:54;418275.00;1.39;721.22;0.00;0.00;0.62;;;;;18.30;1.00;;;;;;2262777;61;1941;-83
2022/09/24 07:45:21;450158.00;1.50;776.05;0.00;0.00;0.62;;;;;18.30;1.00;;;;;;2261545;61;1110;-83
2022/09/24 07:47:55;297699.00;0.99;513.96;0.00;0.00;0.62;;;;;18.40;1.00;;;;;;2259436;61;1157;-83
2022/09/24 07:50:22;493944.00;1.65;851.40;0.00;0.00;0.62;;;;;18.50;1.00;;;;;;2258504;61;1074;-82
2022/09/24 07:52:50;379592.00;1.27;654.72;0.00;0.00;0.62;;;;;18.40;1.00;;;;;;2260968;61;1362;-83
2022/09/24 07:55:17;417394.00;1.39;719.71;0.00;0.00;0.62;;;;;18.40;1.00;;;;;;2260877;61;1117;-83
2022/09/24 07:57:48;307898.00;1.03;531.50;0.00;0.00;0.62;;;;;18.20;1.00;;;;;;2260762;61;1155;-82
2022/09/24 08:00:16;427470.00;1.42;737.04;0.00;0.00;0.62;;;;;18.00;1.00;;;;;;2260249;61;1099;-82
2022/09/24 08:02:43;356435.00;1.19;614.92;0.00;0.00;0.62;;;;;17.90;1.00;;;;;;2259749;61;2010;-83
2022/09/24 08:05:11;507082.00;1.69;874.02;0.00;0.00;0.62;;;;;17.90;1.00;;;;;;2259739;61;1145;-83
2022/09/24 08:07:38;576377.00;1.92;993.45;0.00;0.00;0.62;;;;;18.00;1.00;;;;;;2259581;61;1108;-83
2022/09/24 08:10:05;516801.00;1.72;890.75;45680.00;0.15;79.71;;;;;18.10;1.00;;;;;;2259882;61;1122;-82
2022/09/24 08:12:32;487396.00;1.62;840.13;58567.00;0.20;102.00;;;;;18.40;1.00;;;;;;2260473;61;2106;-83
2022/09/24 08:15:00;345559.00;1.15;596.23;0.00;0.00;0.62;;;;;18.40;1.00;;;;;;2260580;61;1175;-82
2022/09/24 08:17:27;612066.00;2.04;1055.06;17425.00;0.06;30.81;;;;;18.40;1.00;;;;;;2261626;61;1163;-83
2022/09/24 08:19:55;517070.00;1.72;891.22;0.00;0.00;0.62;;;;;18.20;1.00;;;;;;2263704;61;1164;-83
2022/09/24 08:22:22;348995.00;1.16;602.13;0.00;0.00;0.62;;;;;18.30;1.00;;;;;;2263834;61;1355;-84
2022/09/24 08:24:50;288920.00;0.96;498.87;0.00;0.00;0.62;;;;;18.50;1.00;;;;;;2263849;61;2061;-85
2022/09/24 08:27:19;476232.00;1.59;820.91;0.00;0.00;0.62;;;;;18.50;1.00;;;;;;2263623;61;1165;-84
2022/09/24 08:29:46;473257.00;1.58;815.79;0.00;0.00;0.62;;;;;18.70;1.00;;;;;;2263807;61;1168;-85
2022/09/24 08:32:14;465405.00;1.55;802.28;0.00;0.00;0.62;;;;;18.80;1.00;;;;;;2263825;61;1329;-85
2022/09/24 08:34:41;517547.00;1.73;892.04;0.00;0.00;0.62;;;;;18.90;1.00;;;;;;2264156;61;1072;-84
2022/09/24 08:37:10;679681.00;2.27;1172.02;4928.00;0.02;9.16;;;;;18.80;1.00;;;;;;2264245;61;1155;-86
2022/09/24 08:39:36;516706.00;1.72;890.59;0.00;0.00;0.62;;;;;18.80;1.00;;;;;;2263882;61;1108;-84
2022/09/24 08:42:05;491164.00;1.64;846.61;0.00;0.00;0.62;;;;;18.90;1.00;;;;;;2263545;61;1380;-84
2022/09/24 08:47:36;596235.00;1.99;1027.72;0.00;0.00;0.62;;;;;18.90;1.00;;;;;;2264296;61;713;-84
2022/09/24 08:50:12;302959.00;1.01;523.01;0.00;0.00;0.62;;;;;19.10;1.00;;;;;;2263808;61;1008;-84
2022/09/24 08:52:57;560569.00;1.87;966.18;0.00;0.00;0.62;;;;;19.40;1.00;;;;;;2263951;61;1316;-84
2022/09/24 08:55:32;422724.00;1.41;728.87;0.00;0.00;0.62;;;;;19.30;1.00;;;;;;2264023;61;1457;-85
2022/09/24 08:58:12;480811.00;1.60;828.79;0.00;0.00;0.62;;;;;19.50;1.00;;;;;;2264055;61;1276;-86
2022/09/24 09:00:48;486153.00;1.62;837.99;0.00;0.00;0.62;;;;;19.50;1.00;;;;;;2264118;61;1549;-84
2022/09/24 09:03:28;314174.00;1.05;542.28;0.00;0.00;0.62;;;;;19.60;1.00;;;;;;2264024;61;1919;-86
2022/09/24 09:06:01;607218.00;2.02;1046.68;0.00;0.00;0.62;;;;;19.60;1.00;;;;;;2264049;61;1155;-85
2022/09/24 09:08:38;562214.00;1.87;969.02;0.00;0.00;0.62;;;;;19.80;1.00;;;;;;2263881;61;1138;-84
2022/09/24 09:11:11;452378.00;1.51;779.87;0.00;0.00;0.62;;;;;20.00;1.00;;;;;;2263951;61;1071;-84
2022/09/24 09:13:43;434241.00;1.45;748.68;0.00;0.00;0.62;;;;;20.00;1.00;;;;;;2263582;61;1360;-83
2022/09/24 09:16:23;509882.00;1.70;878.84;0.00;0.00;0.62;;;;;19.90;1.00;;;;;;2264049;61;1121;-85
2022/09/24 09:18:58;402602.00;1.34;694.28;0.00;0.00;0.62;;;;;20.00;1.00;;;;;;2263983;61;1046;-84
2022/09/24 09:21:31;374091.00;1.25;645.27;0.00;0.00;0.62;;;;;20.00;1.00;;;;;;2263814;61;1052;-85
2022/09/24 09:24:03;547189.00;1.82;943.11;0.00;0.00;0.62;;;;;20.10;1.00;;;;;;2263975;61;1995;-85
2022/09/24 09:26:30;536732.00;1.79;925.09;0.00;0.00;0.62;;;;;20.00;1.00;;;;;;2263963;61;1277;-84
2022/09/24 09:29:01;251356.00;0.84;434.28;0.00;0.00;0.62;;;;;19.90;1.00;;;;;;2263863;61;1036;-84
2022/09/24 09:31:37;412771.00;1.38;711.76;0.00;0.00;0.62;;;;;20.00;1.00;;;;;;2264111;61;1126;-85
2022/09/24 09:34:28;442516.00;1.48;762.91;0.00;0.00;0.62;;;;;20.00;1.00;;;;;;2263998;61;1115;-85
2022/09/24 09:37:09;491286.00;1.64;846.82;0.00;0.00;0.62;;;;;20.00;1.00;;;;;;2264043;61;2033;-85
2022/09/24 09:39:45;419787.00;1.40;723.82;0.00;0.00;0.62;;;;;20.20;1.00;;;;;;2263933;61;1329;-85
2022/09/24 09:42:30;639749.00;2.13;1102.90;0.00;0.00;0.62;;;;;20.20;1.00;;;;;;2264456;61;1293;-86
2022/09/24 09:45:00;542049.00;1.81;934.25;0.00;0.00;0.62;;;;;20.00;1.00;;;;;;2264584;61;1924;-86
2022/09/24 09:47:40;692498.00;2.31;1194.23;0.00;0.00;0.62;;;;;20.00;1.00;;;;;;2264645;61;1055;-86
2022/09/24 09:50:19;808825.00;2.70;1396.52;15412.00;0.05;27.32;;;;;20.30;1.00;;;;;;2264787;61;1110;-84
2022/09/24 09:52:46;468482.00;1.56;807.58;0.00;0.00;0.62;;;;;20.10;1.00;;;;;;2264609;61;1369;-86
2022/09/24 09:55:22;434002.00;1.45;748.27;0.00;0.00;0.62;;;;;20.00;1.00;;;;;;2264527;61;1606;-85
2022/09/24 09:57:50;509502.00;1.70;878.18;0.00;0.00;0.62;;;;;20.10;1.00;;;;;;2264639;61;1029;-86
2022/09/24 10:00:35;680381.00;2.27;1173.23;48335.00;0.16;84.31;;;;;20.10;1.00;;;;;;2264680;61;1088;-86
2022/09/24 10:03:03;514246.00;1.71;886.35;74397.00;0.25;129.36;;;;;20.10;1.00;;;;;;2264645;61;1923;-86
2022/09/24 10:05:32;403498.00;1.34;695.82;0.00;0.00;0.62;;;;;20.20;1.00;;;;;;2264718;61;1033;-86
2022/09/24 10:07:59;516674.00;1.72;890.54;0.00;0.00;0.62;;;;;20.50;1.00;;;;;;2264701;61;1118;-86